createdAt,value
2023-02-22T00:00:54.623Z,8.05
2023-02-22T00:01:54.644Z,8.02
2023-02-22T00:02:54.618Z,8.02
2023-02-22T00:03:54.600Z,7.98
2023-02-22T00:04:54.593Z,8.14
2023-02-22T00:05:54.584Z,8.17
2023-02-22T00:06:54.576Z,8.24
2023-02-22T00:07:54.566Z,8.21
2023-02-22T00:08:54.560Z,8.29
2023-02-22T00:09:54.549Z,8.28
2023-02-22T00:10:54.546Z,8.28
2023-02-22T00:11:54.533Z,8.34
2023-02-22T00:12:54.524Z,8.31
2023-02-22T00:13:54.524Z,8.42
2023-02-22T00:14:54.507Z,8.20
2023-02-22T00:15:54.499Z,8.01
2023-02-22T00:16:54.490Z,8.12
2023-02-22T00:17:54.484Z,8.23
2023-02-22T00:18:54.490Z,8.26
2023-02-22T00:19:54.459Z,8.21
2023-02-22T00:20:54.457Z,8.20
2023-02-22T00:21:54.443Z,8.28
2023-02-22T00:22:54.439Z,8.41
2023-02-22T00:23:54.439Z,8.42
2023-02-22T00:24:54.420Z,8.34
2023-02-22T00:25:54.420Z,8.35
2023-02-22T00:26:54.413Z,8.38
2023-02-22T00:27:54.400Z,8.44
2023-02-22T00:28:54.391Z,8.37
2023-02-22T00:29:54.383Z,8.41
2023-02-22T00:30:54.380Z,8.39
2023-02-22T00:31:54.556Z,8.37
2023-02-22T00:32:54.355Z,8.44
2023-02-22T00:33:54.352Z,8.34
2023-02-22T00:34:54.339Z,8.24
2023-02-22T00:35:54.332Z,8.24
2023-02-22T00:36:54.325Z,8.19
2023-02-22T00:37:54.325Z,8.16
2023-02-22T00:38:54.306Z,8.23
2023-02-22T00:39:54.300Z,8.12
2023-02-22T00:40:54.294Z,8.24
2023-02-22T00:41:54.322Z,8.09
2023-02-22T00:42:54.289Z,7.99
2023-02-22T00:43:54.264Z,8.04
2023-02-22T00:44:54.252Z,8.06
2023-02-22T00:45:54.291Z,7.99
2023-02-22T00:46:54.246Z,8.04
2023-02-22T00:47:54.234Z,7.98
2023-02-22T00:48:54.230Z,7.62
2023-02-22T00:49:54.224Z,7.62
2023-02-22T00:50:54.211Z,7.61
2023-02-22T00:51:54.205Z,7.69
2023-02-22T00:52:54.204Z,7.87
2023-02-22T00:53:54.193Z,7.80
2023-02-22T00:54:54.178Z,7.81
2023-02-22T00:55:54.171Z,7.81
2023-02-22T00:56:54.185Z,7.88
2023-02-22T00:57:54.149Z,8.02
2023-02-22T00:58:54.134Z,8.02
2023-02-22T00:59:54.138Z,8.12
2023-02-22T01:00:54.165Z,8.05
2023-02-22T01:01:54.137Z,8.09
2023-02-22T01:02:54.110Z,8.05
2023-02-22T01:03:54.102Z,7.99
2023-02-22T01:04:54.096Z,8.06
2023-02-22T01:05:54.086Z,8.05
2023-02-22T01:06:54.072Z,8.05
2023-02-22T01:07:54.071Z,8.13
2023-02-22T01:08:54.066Z,8.02
2023-02-22T01:09:54.072Z,8.17
2023-02-22T01:10:54.046Z,8.12
2023-02-22T01:11:54.044Z,8.21
2023-02-22T01:12:54.026Z,8.23
2023-02-22T01:13:54.052Z,8.24
2023-02-22T01:14:54.005Z,8.29
2023-02-22T01:15:54.024Z,8.29
2023-02-22T01:16:54.032Z,8.21
2023-02-22T01:17:53.991Z,8.09
2023-02-22T01:18:53.985Z,8.04
2023-02-22T01:19:54.099Z,8.02
2023-02-22T01:20:53.957Z,7.92
2023-02-22T01:21:53.954Z,7.87
2023-02-22T01:22:53.942Z,7.94
2023-02-22T01:23:53.931Z,7.84
2023-02-22T01:24:53.936Z,7.69
2023-02-22T01:25:53.919Z,7.69
2023-02-22T01:26:53.931Z,7.62
2023-02-22T01:27:53.902Z,7.68
2023-02-22T01:28:53.896Z,7.74
2023-02-22T01:29:53.875Z,7.54
2023-02-22T01:30:54.100Z,7.40
2023-02-22T01:31:53.916Z,7.58
2023-02-22T01:32:53.857Z,7.58
2023-02-22T01:33:53.853Z,7.69
2023-02-22T01:34:53.862Z,7.64
2023-02-22T01:35:53.838Z,7.62
2023-02-22T01:36:53.826Z,7.66
2023-02-22T01:37:53.820Z,7.66
2023-02-22T01:38:53.818Z,7.71
2023-02-22T01:39:53.794Z,7.87
2023-02-22T01:40:53.799Z,7.87
2023-02-22T01:41:53.779Z,7.99
2023-02-22T01:42:53.770Z,7.98
2023-02-22T01:43:53.762Z,8.10
2023-02-22T01:44:53.758Z,8.01
2023-02-22T01:45:53.802Z,8.04
2023-02-22T01:46:53.740Z,8.01
2023-02-22T01:47:53.723Z,7.86
2023-02-22T01:48:53.728Z,7.78
2023-02-22T01:49:53.713Z,7.78
2023-02-22T01:50:53.703Z,7.84
2023-02-22T01:51:53.693Z,7.83
2023-02-22T01:52:53.683Z,7.83
2023-02-22T01:53:53.676Z,7.55
2023-02-22T01:54:53.663Z,7.50
2023-02-22T01:55:53.652Z,7.34
2023-02-22T01:56:53.651Z,7.42
2023-02-22T01:57:53.637Z,7.37
2023-02-22T01:58:53.635Z,7.44
2023-02-22T01:59:53.633Z,7.50
2023-02-22T02:00:53.623Z,7.52
2023-02-22T02:01:53.613Z,7.39
2023-02-22T02:02:53.600Z,7.47
2023-02-22T02:03:53.621Z,7.54
2023-02-22T02:04:53.607Z,7.64
2023-02-22T02:05:53.601Z,7.71
2023-02-22T02:06:53.569Z,7.78
2023-02-22T02:07:53.561Z,7.68
2023-02-22T02:08:53.562Z,7.69
2023-02-22T02:09:53.543Z,7.68
2023-02-22T02:10:53.561Z,7.73
2023-02-22T02:11:53.525Z,7.77
2023-02-22T02:12:53.527Z,7.69
2023-02-22T02:13:53.509Z,7.57
2023-02-22T02:14:53.505Z,7.68
2023-02-22T02:15:53.493Z,7.73
2023-02-22T02:16:53.685Z,7.71
2023-02-22T02:17:53.480Z,7.80
2023-02-22T02:18:53.475Z,7.83
2023-02-22T02:19:53.458Z,7.81
2023-02-22T02:20:53.450Z,7.77
2023-02-22T02:21:53.449Z,7.74
2023-02-22T02:22:53.437Z,7.81
2023-02-22T02:23:53.451Z,7.83
2023-02-22T02:24:53.423Z,7.66
2023-02-22T02:25:53.408Z,7.55
2023-02-22T02:26:53.394Z,7.64
2023-02-22T02:27:53.389Z,7.64
2023-02-22T02:28:53.388Z,7.54
2023-02-22T02:29:53.379Z,7.61
2023-02-22T02:30:53.369Z,7.73
2023-02-22T02:31:53.449Z,7.69
2023-02-22T02:32:53.370Z,7.73
2023-02-22T02:33:53.337Z,7.71
2023-02-22T02:34:53.336Z,7.62
2023-02-22T02:35:53.332Z,7.68
2023-02-22T02:36:53.316Z,7.76
2023-02-22T02:37:53.304Z,7.71
2023-02-22T02:38:53.329Z,7.66
2023-02-22T02:39:53.342Z,7.77
2023-02-22T02:40:53.286Z,7.77
2023-02-22T02:41:53.282Z,7.69
2023-02-22T02:42:53.256Z,7.77
2023-02-22T02:43:53.257Z,7.68
2023-02-22T02:44:53.252Z,7.73
2023-02-22T02:45:53.239Z,7.74
2023-02-22T02:46:53.257Z,7.68
2023-02-22T02:47:53.226Z,7.84
2023-02-22T02:48:53.201Z,7.84
2023-02-22T02:49:53.202Z,7.78
2023-02-22T02:50:53.195Z,7.73
2023-02-22T02:51:53.188Z,7.74
2023-02-22T02:52:53.182Z,7.77
2023-02-22T02:53:53.171Z,7.71
2023-02-22T02:54:53.157Z,7.68
2023-02-22T02:55:53.148Z,7.55
2023-02-22T02:56:53.145Z,7.60
2023-02-22T02:57:53.132Z,7.66
2023-02-22T02:58:53.249Z,7.64
2023-02-22T02:59:53.127Z,7.66
2023-02-22T03:00:53.117Z,7.76
2023-02-22T03:01:53.111Z,7.69
2023-02-22T03:02:53.104Z,7.64
2023-02-22T03:03:53.075Z,7.62
2023-02-22T03:04:53.081Z,7.52
2023-02-22T03:05:53.076Z,7.61
2023-02-22T03:06:53.059Z,7.58
2023-02-22T03:07:53.046Z,7.54
2023-02-22T03:08:53.044Z,7.42
2023-02-22T03:09:53.053Z,7.54
2023-02-22T03:10:53.021Z,7.46
2023-02-22T03:11:53.013Z,7.22
2023-02-22T03:12:53.008Z,7.07
2023-02-22T03:13:53.002Z,7.03
2023-02-22T03:14:53.014Z,7.10
2023-02-22T03:15:52.980Z,6.96
2023-02-22T03:16:52.972Z,6.85
2023-02-22T03:17:52.957Z,6.83
2023-02-22T03:18:52.992Z,6.74
2023-02-22T03:19:52.942Z,6.68
2023-02-22T03:20:52.950Z,6.78
2023-02-22T03:21:52.929Z,6.73
2023-02-22T03:22:52.927Z,6.65
2023-02-22T03:23:52.908Z,6.68
2023-02-22T03:24:52.925Z,6.75
2023-02-22T03:25:52.890Z,6.81
2023-02-22T03:26:52.876Z,6.71
2023-02-22T03:27:52.869Z,6.68
2023-02-22T03:28:52.864Z,6.63
2023-02-22T03:29:52.850Z,6.74
2023-02-22T03:30:52.879Z,6.68
2023-02-22T03:31:52.847Z,6.67
2023-02-22T03:32:52.835Z,6.60
2023-02-22T03:33:52.820Z,6.68
2023-02-22T03:34:52.823Z,6.67
2023-02-22T03:35:52.801Z,6.65
2023-02-22T03:36:52.792Z,6.55
2023-02-22T03:37:52.780Z,6.67
2023-02-22T03:38:52.770Z,6.50
2023-02-22T03:39:52.762Z,6.67
2023-02-22T03:40:52.756Z,6.70
2023-02-22T03:41:52.749Z,6.83
2023-02-22T03:42:52.737Z,6.70
2023-02-22T03:43:52.719Z,6.91
2023-02-22T03:44:52.727Z,6.99
2023-02-22T03:45:52.702Z,7.03
2023-02-22T03:46:52.702Z,6.86
2023-02-22T03:47:52.692Z,6.89
2023-02-22T03:48:52.685Z,6.92
2023-02-22T03:49:52.670Z,6.93
2023-02-22T03:50:52.657Z,6.79
2023-02-22T03:51:52.638Z,6.71
2023-02-22T03:52:52.638Z,6.78
2023-02-22T03:53:52.625Z,6.81
2023-02-22T03:54:52.626Z,6.75
2023-02-22T03:55:52.608Z,6.67
2023-02-22T03:56:52.608Z,6.67
2023-02-22T03:57:52.591Z,6.65
2023-02-22T03:58:52.586Z,6.61
2023-02-22T03:59:52.574Z,6.55
2023-02-22T04:00:52.563Z,6.65
2023-02-22T04:01:52.558Z,6.71
2023-02-22T04:02:52.554Z,6.70
2023-02-22T04:03:52.540Z,6.68
2023-02-22T04:04:52.628Z,6.68
2023-02-22T04:05:52.512Z,6.71
2023-02-22T04:06:52.514Z,6.81
2023-02-22T04:07:52.499Z,6.73
2023-02-22T04:08:52.502Z,6.67
2023-02-22T04:09:52.482Z,6.73
2023-02-22T04:10:52.471Z,6.96
2023-02-22T04:11:52.470Z,6.89
2023-02-22T04:12:52.463Z,6.89
2023-02-22T04:13:52.447Z,6.64
2023-02-22T04:14:52.433Z,6.70
2023-02-22T04:15:52.442Z,6.71
2023-02-22T04:16:52.410Z,6.73
2023-02-22T04:17:52.405Z,6.70
2023-02-22T04:18:52.399Z,6.64
2023-02-22T04:19:52.392Z,6.68
2023-02-22T04:20:52.377Z,6.56
2023-02-22T04:21:52.377Z,6.37
2023-02-22T04:22:52.366Z,6.47
2023-02-22T04:23:52.354Z,6.60
2023-02-22T04:24:52.353Z,6.73
2023-02-22T04:25:52.333Z,6.71
2023-02-22T04:26:52.329Z,6.74
2023-02-22T04:27:52.319Z,6.65
2023-02-22T04:28:52.303Z,6.75
2023-02-22T04:29:52.306Z,6.79
2023-02-22T04:30:52.365Z,6.68
2023-02-22T04:31:52.311Z,6.81
2023-02-22T04:32:52.267Z,6.65
2023-02-22T04:33:52.261Z,6.64
2023-02-22T04:34:52.247Z,6.70
2023-02-22T04:35:52.266Z,6.79
2023-02-22T04:36:52.233Z,6.82
2023-02-22T04:37:52.222Z,6.96
2023-02-22T04:38:52.210Z,6.89
2023-02-22T04:39:52.238Z,6.88
2023-02-22T04:40:52.196Z,7.04
2023-02-22T04:41:52.183Z,6.97
2023-02-22T04:42:52.200Z,6.79
2023-02-22T04:43:52.177Z,6.71
2023-02-22T04:44:52.152Z,6.70
2023-02-22T04:45:52.154Z,6.88
2023-02-22T04:46:52.142Z,6.85
2023-02-22T04:47:52.129Z,6.86
2023-02-22T04:48:52.115Z,6.99
2023-02-22T04:49:52.109Z,6.99
2023-02-22T04:50:52.099Z,6.83
2023-02-22T04:51:52.094Z,6.89
2023-02-22T04:52:52.098Z,7.03
2023-02-22T04:53:52.087Z,7.03
2023-02-22T04:54:52.075Z,6.96
2023-02-22T04:55:52.078Z,6.89
2023-02-22T04:56:52.048Z,6.67
2023-02-22T04:57:52.038Z,6.70
2023-02-22T04:58:52.050Z,6.65
2023-02-22T04:59:52.022Z,6.67
2023-02-22T05:00:52.007Z,6.73
2023-02-22T05:01:52.012Z,6.78
2023-02-22T05:02:52.042Z,6.52
2023-02-22T05:03:51.991Z,6.64
2023-02-22T05:04:52.029Z,6.68
2023-02-22T05:05:51.966Z,6.50
2023-02-22T05:06:54.120Z,6.68
2023-02-22T05:07:51.944Z,6.65
2023-02-22T05:08:51.938Z,6.50
2023-02-22T05:09:51.932Z,6.57
2023-02-22T05:10:51.917Z,6.57
2023-02-22T05:11:51.907Z,6.35
2023-02-22T05:12:51.915Z,6.40
2023-02-22T05:13:51.882Z,6.52
2023-02-22T05:14:51.881Z,6.56
2023-02-22T05:15:51.877Z,6.40
2023-02-22T05:16:51.867Z,6.53
2023-02-22T05:17:51.858Z,6.49
2023-02-22T05:18:51.865Z,6.42
2023-02-22T05:19:51.851Z,6.49
2023-02-22T05:20:51.832Z,6.53
2023-02-22T05:21:51.813Z,6.64
2023-02-22T05:22:51.814Z,6.60
2023-02-22T05:23:51.798Z,6.74
2023-02-22T05:24:51.786Z,6.75
2023-02-22T05:25:51.775Z,6.81
2023-02-22T05:26:51.778Z,6.89
2023-02-22T05:27:51.766Z,6.99
2023-02-22T05:28:51.760Z,6.91
2023-02-22T05:29:51.750Z,6.79
2023-02-22T05:30:51.736Z,6.88
2023-02-22T05:31:51.800Z,6.73
2023-02-22T05:32:51.726Z,6.64
2023-02-22T05:33:51.705Z,6.38
2023-02-22T05:34:51.700Z,6.38
2023-02-22T05:35:51.688Z,6.37
2023-02-22T05:36:51.676Z,6.46
2023-02-22T05:37:51.670Z,6.19
2023-02-22T05:38:51.655Z,6.09
2023-02-22T05:39:51.662Z,6.15
2023-02-22T05:40:51.639Z,6.30
2023-02-22T05:41:51.638Z,6.27
2023-02-22T05:42:51.622Z,6.31
2023-02-22T05:43:51.654Z,6.15
2023-02-22T05:44:51.601Z,6.19
2023-02-22T05:45:51.596Z,6.18
2023-02-22T05:46:51.628Z,6.13
2023-02-22T05:47:51.600Z,6.03
2023-02-22T05:48:51.577Z,6.06
2023-02-22T05:49:51.559Z,6.08
2023-02-22T05:50:51.556Z,5.94
2023-02-22T05:51:51.542Z,6.11
2023-02-22T05:52:51.528Z,6.19
2023-02-22T05:53:51.532Z,6.28
2023-02-22T05:54:51.516Z,6.40
2023-02-22T05:55:51.505Z,6.42
2023-02-22T05:56:51.510Z,6.30
2023-02-22T05:57:51.504Z,6.37
2023-02-22T05:58:51.476Z,6.42
2023-02-22T05:59:51.473Z,6.40
2023-02-22T06:00:51.464Z,6.46
2023-02-22T06:01:51.479Z,6.49
2023-02-22T06:02:51.435Z,6.37
2023-02-22T06:03:51.431Z,6.42
2023-02-22T06:04:51.415Z,6.55
2023-02-22T06:05:51.475Z,6.70
2023-02-22T06:06:51.402Z,6.68
2023-02-22T06:07:51.392Z,6.79
2023-02-22T06:08:51.382Z,6.70
2023-02-22T06:09:51.369Z,6.65
2023-02-22T06:10:51.368Z,6.53
2023-02-22T06:11:53.036Z,6.32
2023-02-22T06:12:51.387Z,6.37
2023-02-22T06:13:51.356Z,6.45
2023-02-22T06:14:51.355Z,6.55
2023-02-22T06:15:51.373Z,6.53
2023-02-22T06:16:51.333Z,6.64
2023-02-22T06:17:51.325Z,6.65
2023-02-22T06:18:51.338Z,6.57
2023-02-22T06:19:51.270Z,6.57
2023-02-22T06:20:51.273Z,6.52
2023-02-22T06:21:51.281Z,6.68
2023-02-22T06:22:51.264Z,6.68
2023-02-22T06:23:51.236Z,6.78
2023-02-22T06:24:52.502Z,6.67
2023-02-22T06:25:51.240Z,6.79
2023-02-22T06:26:51.217Z,6.70
2023-02-22T06:27:51.206Z,6.73
2023-02-22T06:28:51.197Z,6.73
2023-02-22T06:29:51.194Z,6.79
2023-02-22T06:30:51.182Z,6.79
2023-02-22T06:31:51.273Z,6.70
2023-02-22T06:32:51.185Z,6.81
2023-02-22T06:33:51.147Z,6.79
2023-02-22T06:34:51.128Z,6.83
2023-02-22T06:35:51.137Z,6.67
2023-02-22T06:36:51.117Z,6.70
2023-02-22T06:37:51.116Z,6.74
2023-02-22T06:38:51.114Z,6.73
2023-02-22T06:39:51.091Z,6.68
2023-02-22T06:40:51.076Z,6.42
2023-02-22T06:41:51.118Z,6.52
2023-02-22T06:42:51.077Z,6.64
2023-02-22T06:43:51.069Z,6.53
2023-02-22T06:44:51.789Z,6.42
2023-02-22T06:45:51.133Z,6.56
2023-02-22T06:46:51.055Z,6.61
2023-02-22T06:47:51.054Z,6.79
2023-02-22T06:48:51.025Z,6.65
2023-02-22T06:49:51.001Z,6.65
2023-02-22T06:50:51.000Z,6.73
2023-02-22T06:51:50.994Z,6.68
2023-02-22T06:52:50.977Z,6.78
2023-02-22T06:53:50.973Z,6.78
2023-02-22T06:54:50.967Z,6.68
2023-02-22T06:55:50.958Z,6.68
2023-02-22T06:56:50.935Z,6.55
2023-02-22T06:57:50.924Z,6.65
2023-02-22T06:58:50.919Z,6.64
2023-02-22T06:59:50.942Z,6.70
2023-02-22T07:00:50.923Z,6.79
2023-02-22T07:01:50.898Z,6.78
2023-02-22T07:02:50.888Z,6.82
2023-02-22T07:03:50.897Z,6.85
2023-02-22T07:04:50.870Z,6.96
2023-02-22T07:05:50.861Z,6.92
2023-02-22T07:06:50.862Z,7.00
2023-02-22T07:07:50.848Z,7.03
2023-02-22T07:08:50.827Z,7.07
2023-02-22T07:09:50.817Z,7.06
2023-02-22T07:10:50.819Z,7.04
2023-02-22T07:11:50.806Z,6.99
2023-02-22T07:12:50.794Z,7.07
2023-02-22T07:13:50.791Z,7.08
2023-02-22T07:14:50.791Z,7.10
2023-02-22T07:15:50.769Z,7.10
2023-02-22T07:16:50.773Z,7.10
2023-02-22T07:17:50.760Z,7.13
2023-02-22T07:18:50.740Z,7.07
2023-02-22T07:19:50.733Z,6.85
2023-02-22T07:20:50.723Z,6.93
2023-02-22T07:21:50.719Z,6.86
2023-02-22T07:22:50.742Z,6.78
2023-02-22T07:23:50.716Z,6.79
2023-02-22T07:24:50.689Z,6.71
2023-02-22T07:25:50.693Z,6.73
2023-02-22T07:26:50.677Z,6.73
2023-02-22T07:27:50.670Z,6.83
2023-02-22T07:28:50.670Z,6.75
2023-02-22T07:29:50.664Z,6.83
2023-02-22T07:30:50.645Z,6.83
2023-02-22T07:31:50.679Z,6.92
2023-02-22T07:32:50.702Z,6.93
2023-02-22T07:33:50.609Z,6.96
2023-02-22T07:34:50.606Z,7.07
2023-02-22T07:35:50.597Z,7.01
2023-02-22T07:36:50.585Z,7.11
2023-02-22T07:37:50.583Z,7.13
2023-02-22T07:38:50.564Z,7.11
2023-02-22T07:39:50.571Z,7.06
2023-02-22T07:40:50.567Z,7.08
2023-02-22T07:41:50.549Z,7.07
2023-02-22T07:42:50.536Z,7.11
2023-02-22T07:43:50.518Z,7.18
2023-02-22T07:44:50.516Z,7.08
2023-02-22T07:45:50.529Z,7.11
2023-02-22T07:46:50.526Z,7.00
2023-02-22T07:47:50.485Z,6.91
2023-02-22T07:48:50.478Z,6.99
2023-02-22T07:49:50.469Z,7.00
2023-02-22T07:50:50.465Z,6.71
2023-02-22T07:51:50.465Z,6.78
2023-02-22T07:52:50.444Z,6.40
2023-02-22T07:53:50.436Z,6.32
2023-02-22T07:54:50.414Z,6.40
2023-02-22T07:55:50.421Z,6.37
2023-02-22T07:56:50.406Z,6.35
2023-02-22T07:57:50.433Z,6.34
2023-02-22T07:58:50.406Z,6.34
2023-02-22T07:59:50.385Z,6.24
2023-02-22T08:00:50.381Z,6.37
2023-02-22T08:01:50.374Z,6.40
2023-02-22T08:02:50.377Z,6.43
2023-02-22T08:03:50.364Z,6.47
2023-02-22T08:04:50.340Z,6.55
2023-02-22T08:05:50.360Z,6.46
2023-02-22T08:06:50.324Z,6.60
2023-02-22T08:07:50.313Z,6.65
2023-02-22T08:08:50.293Z,6.63
2023-02-22T08:09:50.286Z,6.73
2023-02-22T08:10:50.285Z,6.79
2023-02-22T08:11:50.272Z,6.78
2023-02-22T08:12:50.261Z,6.86
2023-02-22T08:13:50.270Z,6.74
2023-02-22T08:14:50.236Z,6.78
2023-02-22T08:15:50.247Z,6.82
2023-02-22T08:16:50.258Z,6.75
2023-02-22T08:17:50.225Z,6.93
2023-02-22T08:18:50.212Z,6.93
2023-02-22T08:19:50.201Z,6.63
2023-02-22T08:20:50.192Z,6.56
2023-02-22T08:21:50.186Z,6.55
2023-02-22T08:22:50.174Z,6.67
2023-02-22T08:23:50.172Z,6.53
2023-02-22T08:24:50.160Z,6.53
2023-02-22T08:25:50.163Z,6.65
2023-02-22T08:26:50.142Z,6.68
2023-02-22T08:27:50.135Z,6.79
2023-02-22T08:28:50.118Z,6.88
2023-02-22T08:29:50.111Z,7.04
2023-02-22T08:30:50.121Z,7.15
2023-02-22T08:31:50.262Z,7.07
2023-02-22T08:32:50.168Z,7.10
2023-02-22T08:33:50.091Z,7.25
2023-02-22T08:34:50.068Z,7.22
2023-02-22T08:35:50.071Z,7.37
2023-02-22T08:36:50.049Z,7.43
2023-02-22T08:37:50.046Z,7.46
2023-02-22T08:38:50.034Z,7.44
2023-02-22T08:39:50.024Z,7.55
2023-02-22T08:40:50.050Z,7.57
2023-02-22T08:41:50.009Z,7.52
2023-02-22T08:42:50.001Z,7.44
2023-02-22T08:43:49.985Z,7.55
2023-02-22T08:44:50.011Z,7.54
2023-02-22T08:45:50.038Z,7.58
2023-02-22T08:46:49.962Z,7.57
2023-02-22T08:47:49.959Z,7.60
2023-02-22T08:48:49.937Z,7.58
2023-02-22T08:49:49.938Z,7.64
2023-02-22T08:50:49.940Z,7.71
2023-02-22T08:51:49.922Z,7.73
2023-02-22T08:52:49.909Z,7.81
2023-02-22T08:53:49.909Z,7.81
2023-02-22T08:54:49.890Z,7.88
2023-02-22T08:55:49.927Z,7.84
2023-02-22T08:56:49.879Z,7.83
2023-02-22T08:57:49.877Z,7.88
2023-02-22T08:58:49.867Z,7.88
2023-02-22T08:59:49.858Z,7.96
2023-02-22T09:00:49.843Z,8.02
2023-02-22T09:01:49.883Z,8.05
2023-02-22T09:02:49.827Z,8.04
2023-02-22T09:03:49.887Z,8.01
2023-02-22T09:04:49.820Z,8.06
2023-02-22T09:05:49.822Z,8.09
2023-02-22T09:06:49.801Z,8.04
2023-02-22T09:07:49.832Z,8.06
2023-02-22T09:08:49.783Z,7.92
2023-02-22T09:09:49.766Z,7.98
2023-02-22T09:10:49.761Z,8.05
2023-02-22T09:11:52.671Z,8.02
2023-02-22T09:12:49.750Z,8.02
2023-02-22T09:13:49.749Z,8.10
2023-02-22T09:14:49.737Z,8.14
2023-02-22T09:15:49.726Z,8.20
2023-02-22T09:16:49.750Z,8.26
2023-02-22T09:17:49.707Z,8.28
2023-02-22T09:18:49.709Z,8.23
2023-02-22T09:19:49.691Z,8.24
2023-02-22T09:20:49.693Z,8.31
2023-02-22T09:21:49.684Z,8.32
2023-02-22T09:22:49.675Z,8.53
2023-02-22T09:23:49.660Z,8.62
2023-02-22T09:24:49.658Z,8.75
2023-02-22T09:25:49.650Z,8.86
2023-02-22T09:26:49.643Z,8.92
2023-02-22T09:27:49.645Z,9.01
2023-02-22T09:28:49.624Z,8.99
2023-02-22T09:29:49.625Z,9.12
2023-02-22T09:30:49.678Z,9.04
2023-02-22T09:31:49.676Z,9.08
2023-02-22T09:32:49.818Z,9.14
2023-02-22T09:33:49.599Z,9.14
2023-02-22T09:34:49.599Z,9.27
2023-02-22T09:35:49.577Z,9.32
2023-02-22T09:36:49.582Z,9.47
2023-02-22T09:37:49.571Z,9.52
2023-02-22T09:38:49.557Z,9.52
2023-02-22T09:39:49.631Z,9.55
2023-02-22T09:40:49.552Z,9.62
2023-02-22T09:41:49.555Z,9.59
2023-02-22T09:42:49.534Z,9.63
2023-02-22T09:43:49.559Z,9.60
2023-02-22T09:44:49.536Z,9.67
2023-02-22T09:45:49.568Z,9.72
2023-02-22T09:46:49.504Z,9.80
2023-02-22T09:47:49.534Z,9.87
2023-02-22T09:48:49.488Z,9.87
2023-02-22T09:49:49.504Z,9.94
2023-02-22T09:50:49.484Z,9.87
2023-02-22T09:51:49.538Z,9.96
2023-02-22T09:52:49.470Z,10.02
2023-02-22T09:53:49.458Z,10.12
2023-02-22T09:54:49.453Z,10.26
2023-02-22T09:55:49.444Z,10.30
2023-02-22T09:56:49.439Z,10.36
2023-02-22T09:57:49.438Z,10.52
2023-02-22T09:58:49.445Z,10.64
2023-02-22T09:59:49.420Z,10.61
2023-02-22T10:00:49.410Z,10.65
2023-02-22T10:01:49.406Z,10.76
2023-02-22T10:02:49.403Z,10.80
2023-02-22T10:03:49.471Z,10.86
2023-02-22T10:04:49.380Z,10.91
2023-02-22T10:05:49.410Z,10.97
2023-02-22T10:06:49.377Z,10.86
2023-02-22T10:07:49.382Z,10.91
2023-02-22T10:08:49.365Z,10.87
2023-02-22T10:09:49.357Z,10.93
2023-02-22T10:10:49.370Z,11.04
2023-02-22T10:11:49.353Z,11.16
2023-02-22T10:12:49.369Z,11.04
2023-02-22T10:13:49.326Z,11.00
2023-02-22T10:14:49.345Z,11.16
2023-02-22T10:15:49.322Z,11.18
2023-02-22T10:16:49.442Z,11.25
2023-02-22T10:17:49.308Z,11.19
2023-02-22T10:18:49.322Z,11.15
2023-02-22T10:19:49.305Z,11.33
2023-02-22T10:20:49.310Z,11.45
2023-02-22T10:21:49.317Z,11.59
2023-02-22T10:22:49.298Z,11.67
2023-02-22T10:23:49.310Z,11.82
2023-02-22T10:24:49.282Z,11.89
2023-02-22T10:25:49.288Z,12.00
2023-02-22T10:26:49.270Z,11.96
2023-02-22T10:27:49.279Z,11.95
2023-02-22T10:28:49.263Z,12.04
2023-02-22T10:29:49.262Z,12.15
2023-02-22T10:30:49.330Z,11.80
2023-02-22T10:31:49.349Z,11.89
2023-02-22T10:32:49.248Z,12.04
2023-02-22T10:33:49.246Z,12.29
2023-02-22T10:34:49.251Z,12.46
2023-02-22T10:35:49.233Z,12.61
2023-02-22T10:36:49.238Z,12.44
2023-02-22T10:37:49.415Z,12.54
2023-02-22T10:38:49.238Z,12.53
2023-02-22T10:39:49.260Z,12.73
2023-02-22T10:40:49.230Z,12.73
2023-02-22T10:41:49.211Z,12.91
2023-02-22T10:42:49.224Z,12.95
2023-02-22T10:43:49.207Z,12.98
2023-02-22T10:44:49.211Z,12.65
2023-02-22T10:45:49.226Z,12.54
2023-02-22T10:46:49.198Z,12.46
2023-02-22T10:47:49.188Z,12.46
2023-02-22T10:48:49.218Z,12.66
2023-02-22T10:49:49.191Z,12.88
2023-02-22T10:50:49.198Z,13.06
2023-02-22T10:51:49.173Z,13.23
2023-02-22T10:52:49.171Z,13.36
2023-02-22T10:53:49.158Z,13.43
2023-02-22T10:54:49.171Z,13.47
2023-02-22T10:55:49.177Z,13.36
2023-02-22T10:56:49.155Z,12.98
2023-02-22T10:57:49.154Z,13.04
2023-02-22T10:58:49.155Z,12.88
2023-02-22T10:59:49.152Z,12.90
2023-02-22T11:00:49.140Z,12.83
2023-02-22T11:01:49.183Z,12.86
2023-02-22T11:02:49.126Z,12.96
2023-02-22T11:03:49.124Z,12.66
2023-02-22T11:04:49.140Z,12.88
2023-02-22T11:05:49.121Z,13.05
2023-02-22T11:06:49.130Z,13.13
2023-02-22T11:07:49.120Z,13.21
2023-02-22T11:08:49.107Z,13.23
2023-02-22T11:09:49.117Z,13.16
2023-02-22T11:10:49.105Z,13.32
2023-02-22T11:11:49.095Z,13.43
2023-02-22T11:12:49.111Z,13.45
2023-02-22T11:13:49.109Z,13.54
2023-02-22T11:14:49.084Z,13.45
2023-02-22T11:15:49.078Z,13.47
2023-02-22T11:16:49.087Z,13.63
2023-02-22T11:17:49.065Z,13.76
2023-02-22T11:18:49.064Z,13.83
2023-02-22T11:19:49.077Z,13.98
2023-02-22T11:20:49.058Z,14.03
2023-02-22T11:21:49.042Z,14.03
2023-02-22T11:22:49.048Z,14.12
2023-02-22T11:23:49.047Z,14.21
2023-02-22T11:24:49.556Z,14.18
2023-02-22T11:25:49.038Z,14.27
2023-02-22T11:26:49.141Z,14.53
2023-02-22T11:27:49.058Z,14.30
2023-02-22T11:28:49.067Z,13.94
2023-02-22T11:29:49.016Z,13.76
2023-02-22T11:30:49.110Z,13.73
2023-02-22T11:31:49.141Z,13.93
2023-02-22T11:32:49.029Z,14.13
2023-02-22T11:33:49.002Z,14.21
2023-02-22T11:34:50.827Z,14.09
2023-02-22T11:35:48.998Z,13.71
2023-02-22T11:36:48.995Z,13.64
2023-02-22T11:37:49.001Z,13.83
2023-02-22T11:38:49.004Z,13.94
2023-02-22T11:39:48.985Z,13.96
2023-02-22T11:40:48.988Z,14.08
2023-02-22T11:41:48.998Z,14.01
2023-02-22T11:42:48.981Z,13.75
2023-02-22T11:43:48.988Z,13.90
2023-02-22T11:44:48.973Z,13.83
2023-02-22T11:45:57.832Z,13.72
2023-02-22T11:46:49.015Z,13.83
2023-02-22T11:47:48.970Z,13.94
2023-02-22T11:48:48.969Z,14.04
2023-02-22T11:49:48.944Z,14.19
2023-02-22T11:50:48.948Z,14.27
2023-02-22T11:51:48.962Z,14.37
2023-02-22T11:52:48.943Z,14.38
2023-02-22T11:53:48.939Z,14.33
2023-02-22T11:54:48.959Z,14.49
2023-02-22T11:55:48.925Z,14.52
2023-02-22T11:56:48.983Z,14.63
2023-02-22T11:57:49.030Z,14.52
2023-02-22T11:58:48.912Z,14.78
2023-02-22T11:59:48.927Z,14.79
2023-02-22T12:00:48.918Z,14.70
2023-02-22T12:01:48.903Z,14.83
2023-02-22T12:02:57.007Z,14.79
2023-02-22T12:03:49.076Z,14.97
2023-02-22T12:04:48.968Z,15.03
2023-02-22T12:05:48.889Z,15.20
2023-02-22T12:06:48.889Z,14.93
2023-02-22T12:07:48.880Z,15.01
2023-02-22T12:08:48.889Z,15.10
2023-02-22T12:09:48.896Z,15.30
2023-02-22T12:10:48.908Z,15.44
2023-02-22T12:11:48.872Z,15.47
2023-02-22T12:12:48.874Z,15.44
2023-02-22T12:13:48.869Z,15.38
2023-02-22T12:14:48.870Z,15.38
2023-02-22T12:15:48.875Z,15.33
2023-02-22T12:16:48.859Z,15.44
2023-02-22T12:17:59.293Z,15.45
2023-02-22T12:18:48.865Z,15.33
2023-02-22T12:19:48.858Z,15.27
2023-02-22T12:20:48.842Z,15.33
2023-02-22T12:21:48.834Z,15.26
2023-02-22T12:22:48.831Z,15.14
2023-02-22T12:23:48.837Z,14.99
2023-02-22T12:24:50.062Z,14.92
2023-02-22T12:25:48.830Z,14.93
2023-02-22T12:26:48.832Z,15.14
2023-02-22T12:27:48.823Z,15.10
2023-02-22T12:28:48.865Z,15.12
2023-02-22T12:29:48.821Z,15.03
2023-02-22T12:30:48.885Z,15.15
2023-02-22T12:31:48.939Z,15.07
2023-02-22T12:32:48.856Z,15.15
2023-02-22T12:33:48.875Z,15.26
2023-02-22T12:34:48.845Z,15.07
2023-02-22T12:35:48.808Z,15.23
2023-02-22T12:36:48.794Z,15.26
2023-02-22T12:37:48.819Z,15.22
2023-02-22T12:38:48.889Z,15.41
2023-02-22T12:39:53.492Z,15.27
2023-02-22T12:40:48.796Z,15.17
2023-02-22T12:41:48.777Z,15.20
2023-02-22T12:42:48.778Z,15.10
2023-02-22T12:43:48.778Z,15.22
2023-02-22T12:44:48.769Z,15.27
2023-02-22T12:45:48.763Z,15.30
2023-02-22T12:46:48.753Z,15.20
2023-02-22T12:47:48.778Z,15.30
2023-02-22T12:48:48.764Z,15.27
2023-02-22T12:49:48.755Z,15.08
2023-02-22T12:50:48.753Z,14.97
2023-02-22T12:51:48.756Z,14.97
2023-02-22T12:52:48.742Z,15.10
2023-02-22T12:53:48.731Z,14.97
2023-02-22T12:54:48.741Z,14.92
2023-02-22T12:55:48.753Z,14.96
2023-02-22T12:56:48.725Z,15.05
2023-02-22T12:57:48.718Z,15.07
2023-02-22T12:58:48.719Z,15.14
2023-02-22T12:59:48.723Z,15.11
2023-02-22T13:00:48.710Z,15.11
2023-02-22T13:01:48.774Z,15.19
2023-02-22T13:02:48.709Z,15.25
2023-02-22T13:03:48.697Z,15.22
2023-02-22T13:04:48.707Z,15.29
2023-02-22T13:05:48.705Z,15.29
2023-02-22T13:06:48.682Z,15.25
2023-02-22T13:07:48.679Z,15.29
2023-02-22T13:08:48.671Z,15.33
2023-02-22T13:09:48.661Z,15.17
2023-02-22T13:10:48.664Z,15.14
2023-02-22T13:11:48.675Z,15.08